Time;durP1;ratioP1;P1;durP2;ratioP2;P2;SDS_P1;SDS_P2;PMS_P1;PMS_P2;Temp;Humidity;BMP_temperature;BMP_pressure;BME280_temperature;BME280_humidity;BME280_pressure;Samples;Min_cycle;Max_cycle;Signal;HPM_P1;HPM_P2
2021/07/13 04:02:07;;;;;;;3.53;2.70;;;15.00;96.30;;;;;;5222687;22;20573;-79
2021/07/13 04:04:32;;;;;;;6.30;3.30;;;15.60;96.30;;;;;;5015225;28;20473;-79
2021/07/13 04:06:58;;;;;;;5.00;2.20;;;16.10;96.30;;;;;;5014536;28;20212;-79
2021/07/13 04:09:23;;;;;;;3.63;1.90;;;16.60;96.30;;;;;;5015197;28;20184;-79
2021/07/13 04:11:49;;;;;;;6.00;2.13;;;17.00;96.30;;;;;;5014932;28;20676;-79
2021/07/13 04:14:14;;;;;;;7.87;2.00;;;17.20;96.30;;;;;;5016090;28;20169;-81
2021/07/13 04:16:40;;;;;;;8.13;2.57;;;17.80;96.30;;;;;;5016856;28;20181;-81
2021/07/13 04:19:05;;;;;;;3.50;2.50;;;18.20;96.30;;;;;;5014864;28;20240;-81
2021/07/13 04:21:31;;;;;;;3.50;2.00;;;18.50;96.30;;;;;;5002803;28;20733;-81
2021/07/13 04:23:56;;;;;;;5.03;1.80;;;18.30;96.30;;;;;;5012871;28;20187;-79
2021/07/13 04:26:23;;;;;;;2.17;1.70;;;18.70;96.30;;;;;;5014721;28;20683;-79
2021/07/13 04:28:49;;;;;;;4.07;2.30;;;19.00;96.30;;;;;;5013969;28;20644;-79
2021/07/13 04:31:15;;;;;;;2.57;2.17;;;19.10;96.30;;;;;;5012530;28;20436;-79
2021/07/13 04:33:40;;;;;;;2.27;2.07;;;19.40;96.30;;;;;;5008550;28;20169;-79
2021/07/13 04:36:06;;;;;;;4.93;1.90;;;19.60;96.30;;;;;;5005773;28;20255;-79
2021/07/13 04:38:32;;;;;;;9.23;2.07;;;19.40;96.30;;;;;;5009259;28;20259;-79
2021/07/13 04:40:57;;;;;;;3.47;2.00;;;19.80;96.30;;;;;;5004263;28;20201;-79
2021/07/13 04:43:23;;;;;;;9.07;2.20;;;20.20;96.30;;;;;;5005878;28;20201;-79
2021/07/13 04:45:48;;;;;;;3.10;1.73;;;20.70;96.30;;;;;;4998367;28;20676;-79
2021/07/13 04:48:14;;;;;;;6.80;2.27;;;20.60;96.30;;;;;;4976781;28;20180;-80
2021/07/13 04:50:40;;;;;;;4.47;2.10;;;20.90;96.30;;;;;;4994782;28;20280;-79
2021/07/13 04:53:05;;;;;;;7.60;1.93;;;20.90;96.30;;;;;;4999574;28;20641;-79
2021/07/13 04:55:31;;;;;;;2.60;1.60;;;20.70;96.30;;;;;;4994401;28;20174;-79
2021/07/13 04:57:56;;;;;;;3.37;1.67;;;20.30;96.30;;;;;;4993877;28;20178;-80
2021/07/13 05:00:22;;;;;;;3.63;1.77;;;19.90;96.30;;;;;;4993961;28;20174;-79
2021/07/13 05:02:47;;;;;;;2.93;2.10;;;20.20;96.30;;;;;;4996976;28;20162;-79
2021/07/13 05:05:14;;;;;;;3.57;1.83;;;20.10;96.30;;;;;;4995553;28;20177;-79
2021/07/13 05:07:41;;;;;;;2.23;1.53;;;19.40;96.30;;;;;;5002332;28;20206;-79
2021/07/13 05:10:12;;;;;;;4.47;1.97;;;18.90;96.30;;;;;;4997687;28;20901;-79
2021/07/13 05:12:38;;;;;;;3.57;2.00;;;18.80;96.30;;;;;;4976439;28;20420;-79
2021/07/13 05:15:09;;;;;;;2.13;1.90;;;18.70;96.30;;;;;;4975805;28;20990;-79
2021/07/13 05:17:36;;;;;;;3.00;2.20;;;18.40;96.30;;;;;;4994748;28;20432;-79
2021/07/13 05:20:06;;;;;;;6.20;1.80;;;18.00;96.30;;;;;;4994712;28;20412;-79
2021/07/13 05:22:33;;;;;;;2.00;1.80;;;17.90;96.30;;;;;;4994811;28;20532;-79
2021/07/13 05:24:59;;;;;;;3.33;1.93;;;17.60;96.30;;;;;;4994462;28;20860;-79
2021/07/13 05:27:25;;;;;;;4.40;1.80;;;17.40;96.30;;;;;;4994131;28;20453;-79
2021/07/13 05:29:51;;;;;;;6.37;2.73;;;17.40;96.30;;;;;;4976949;28;20169;-79
2021/07/13 05:32:16;;;;;;;2.33;1.67;;;17.20;96.30;;;;;;4994451;28;20197;-79
2021/07/13 05:34:43;;;;;;;3.60;2.17;;;17.10;96.30;;;;;;4994188;28;20401;-79
2021/07/13 05:37:10;;;;;;;12.00;2.23;;;17.00;96.30;;;;;;4993758;28;20253;-79
2021/07/13 05:39:36;;;;;;;2.40;2.10;;;17.20;96.30;;;;;;4994516;28;20420;-79
2021/07/13 05:42:02;;;;;;;3.53;1.90;;;17.20;96.30;;;;;;4994577;28;20425;-79
2021/07/13 05:44:27;;;;;;;3.83;2.40;;;17.40;96.30;;;;;;4993486;28;20186;-79
2021/07/13 05:46:53;;;;;;;5.27;2.17;;;17.60;96.30;;;;;;4994073;28;20661;-79
2021/07/13 05:49:18;;;;;;;5.90;2.30;;;17.70;96.30;;;;;;4994111;28;20252;-79
2021/07/13 05:51:44;;;;;;;5.00;1.90;;;18.00;96.30;;;;;;4998301;28;20681;-79
2021/07/13 05:54:10;;;;;;;2.60;1.90;;;18.60;96.30;;;;;;4997455;28;20240;-79
2021/07/13 05:56:36;;;;;;;2.70;1.77;;;19.00;96.30;;;;;;4994066;28;20479;-79
2021/07/13 05:59:02;;;;;;;4.30;1.70;;;19.40;96.30;;;;;;4976563;28;20956;-80
2021/07/13 06:01:27;;;;;;;1.70;1.50;;;20.00;96.30;;;;;;4994120;28;20213;-79
2021/07/13 06:03:53;;;;;;;5.73;1.97;;;20.30;96.30;;;;;;4993960;28;20174;-79
2021/07/13 06:06:19;;;;;;;4.13;2.00;;;20.30;96.30;;;;;;4994187;28;20220;-79
2021/07/13 06:08:44;;;;;;;1.83;1.60;;;20.20;96.30;;;;;;4993390;28;20948;-79
2021/07/13 06:11:10;;;;;;;1.97;1.77;;;20.10;96.30;;;;;;4994843;28;20248;-79
2021/07/13 06:13:35;;;;;;;4.70;1.93;;;19.90;96.30;;;;;;4977339;28;20166;-79
2021/07/13 06:16:01;;;;;;;4.00;1.83;;;19.60;96.30;;;;;;4993651;28;20170;-79
2021/07/13 06:18:26;;;;;;;7.80;2.00;;;20.00;96.30;;;;;;4993042;28;20174;-79
2021/07/13 06:20:52;;;;;;;3.50;2.17;;;21.20;96.30;;;;;;4976895;28;20189;-80
2021/07/13 06:23:17;;;;;;;2.10;1.90;;;23.10;96.30;;;;;;4994638;28;20657;-80
2021/07/13 06:25:43;;;;;;;3.43;1.57;;;24.00;96.30;;;;;;4994836;28;20288;-79
2021/07/13 06:28:10;;;;;;;2.57;1.80;;;24.20;95.00;;;;;;4994182;28;20409;-80
2021/07/13 06:30:35;;;;;;;1.80;1.70;;;23.60;96.30;;;;;;4994012;28;20185;-80
2021/07/13 06:33:02;;;;;;;2.90;1.90;;;22.70;96.30;;;;;;4994206;28;20405;-79
2021/07/13 06:35:28;;;;;;;1.90;1.67;;;22.40;96.30;;;;;;4992937;28;20170;-80
2021/07/13 06:37:53;;;;;;;2.27;1.90;;;22.10;96.30;;;;;;4993440;28;20417;-80
2021/07/13 06:40:19;;;;;;;2.30;1.93;;;21.90;96.30;;;;;;4993698;28;20174;-80
2021/07/13 06:42:45;;;;;;;2.77;1.90;;;21.80;96.30;;;;;;4993687;28;20173;-80
2021/07/13 06:45:11;;;;;;;1.60;1.50;;;21.80;96.30;;;;;;4993713;28;20169;-79
2021/07/13 06:47:37;;;;;;;5.67;2.20;;;21.80;96.30;;;;;;4993747;28;20968;-79
2021/07/13 06:50:04;;;;;;;3.20;2.20;;;22.00;96.30;;;;;;4993788;28;20452;-79
2021/07/13 06:52:30;;;;;;;3.17;2.07;;;21.80;96.30;;;;;;4993850;28;20201;-80
2021/07/13 06:54:55;;;;;;;2.40;2.03;;;21.90;96.30;;;;;;5008651;28;20449;-80
2021/07/13 06:57:23;;;;;;;3.50;1.90;;;22.00;96.30;;;;;;4993211;28;20533;-79
2021/07/13 06:59:48;;;;;;;5.33;2.10;;;21.90;96.30;;;;;;4993557;28;20196;-79
2021/07/13 07:02:14;;;;;;;3.77;2.30;;;21.80;96.30;;;;;;4995014;28;20444;-80
2021/07/13 07:04:40;;;;;;;3.83;2.07;;;21.70;96.30;;;;;;5008712;28;20176;-80
2021/07/13 07:07:05;;;;;;;9.27;2.20;;;21.80;96.30;;;;;;5007667;28;20236;-80
2021/07/13 07:09:31;;;;;;;2.30;2.10;;;21.80;96.30;;;;;;5010740;28;20192;-80
2021/07/13 07:11:56;;;;;;;5.93;2.00;;;21.90;96.30;;;;;;5011069;28;20204;-80
2021/07/13 07:14:21;;;;;;;6.80;2.93;;;22.00;96.30;;;;;;4994594;28;20181;-80
2021/07/13 07:16:47;;;;;;;3.17;2.50;;;21.80;96.30;;;;;;5011640;28;20190;-81
2021/07/13 07:19:12;;;;;;;3.17;2.00;;;21.50;96.30;;;;;;5009266;28;20603;-80
2021/07/13 07:21:38;;;;;;;2.70;2.43;;;21.40;96.30;;;;;;4996445;28;20655;-79
2021/07/13 07:24:04;;;;;;;8.13;1.97;;;21.60;96.30;;;;;;4997141;28;20181;-80
2021/07/13 07:26:29;;;;;;;2.83;2.03;;;21.80;96.30;;;;;;4997088;28;20292;-80
2021/07/13 07:28:55;;;;;;;3.73;2.10;;;21.80;96.30;;;;;;4996138;28;20256;-80
2021/07/13 07:31:21;;;;;;;7.97;2.47;;;22.00;96.30;;;;;;4996878;28;20235;-80
2021/07/13 07:33:47;;;;;;;8.63;2.70;;;21.90;96.30;;;;;;4996904;28;20252;-80
2021/07/13 07:36:13;;;;;;;4.80;2.70;;;22.40;96.30;;;;;;4979311;28;20432;-80
2021/07/13 07:38:38;;;;;;;3.83;2.20;;;22.90;96.30;;;;;;4978730;28;20820;-80
2021/07/13 07:41:04;;;;;;;3.27;2.17;;;23.30;96.30;;;;;;4997076;28;20556;-80
2021/07/13 07:43:29;;;;;;;4.40;2.40;;;23.40;96.30;;;;;;4997063;28;20202;-80
2021/07/13 07:45:55;;;;;;;4.03;2.57;;;24.70;96.30;;;;;;4980103;28;20288;-80
2021/07/13 07:48:20;;;;;;;4.40;2.47;;;25.60;94.70;;;;;;4996810;28;20660;-80
2021/07/13 07:50:46;;;;;;;3.67;2.30;;;26.40;93.40;;;;;;4996928;28;20197;-80
2021/07/13 07:53:11;;;;;;;2.53;2.33;;;27.40;88.70;;;;;;4997577;28;20177;-80
2021/07/13 07:55:38;;;;;;;3.00;2.33;;;28.40;86.10;;;;;;4997652;28;20179;-80
2021/07/13 07:58:03;;;;;;;2.87;2.67;;;28.70;85.10;;;;;;4996221;28;20173;-80
2021/07/13 08:00:29;;;;;;;3.20;2.90;;;29.60;83.40;;;;;;4996581;28;20464;-80
2021/07/13 08:02:55;;;;;;;4.27;3.27;;;29.00;83.90;;;;;;4979595;28;20215;-80
2021/07/13 08:05:23;;;;;;;3.60;3.30;;;28.60;86.90;;;;;;4979878;28;20649;-80
2021/07/13 08:07:48;;;;;;;6.70;3.87;;;28.50;85.30;;;;;;4978683;28;20211;-80
2021/07/13 08:10:15;;;;;;;4.50;4.07;;;27.50;88.30;;;;;;4978775;28;20916;-80
2021/07/13 08:12:42;;;;;;;4.03;3.63;;;26.70;92.90;;;;;;4996520;28;20176;-80
2021/07/13 08:15:08;;;;;;;6.43;3.70;;;26.80;92.70;;;;;;4996677;28;20991;-80
2021/07/13 08:17:34;;;;;;;6.60;4.20;;;26.80;93.00;;;;;;4978659;28;20431;-80
2021/07/13 08:20:00;;;;;;;6.50;4.37;;;27.00;91.80;;;;;;4996120;28;20420;-80
2021/07/13 08:22:26;;;;;;;5.70;4.53;;;27.00;93.40;;;;;;4996343;28;20900;-80
2021/07/13 08:24:52;;;;;;;9.70;5.03;;;27.20;91.40;;;;;;4996502;28;20173;-80
2021/07/13 08:27:17;;;;;;;7.37;4.50;;;27.30;92.90;;;;;;4995666;28;20951;-80
2021/07/13 08:29:43;;;;;;;4.70;4.30;;;27.00;92.30;;;;;;4996006;28;20193;-80
2021/07/13 08:32:08;;;;;;;6.53;5.57;;;26.50;92.60;;;;;;4995925;28;20193;-80
2021/07/13 08:34:35;;;;;;;5.73;5.23;;;26.10;93.50;;;;;;4998180;28;20238;-80
2021/07/13 08:37:02;;;;;;;7.87;5.67;;;26.30;94.80;;;;;;5005557;28;20270;-80
2021/07/13 08:39:28;;;;;;;5.33;4.83;;;27.20;91.00;;;;;;5001802;28;20471;-80
2021/07/13 08:41:53;;;;;;;4.67;4.23;;;27.70;90.10;;;;;;4995543;28;20462;-80
2021/07/13 08:44:19;;;;;;;5.30;4.87;;;28.00;89.50;;;;;;4995711;28;20499;-80
2021/07/13 08:46:45;;;;;;;6.17;5.00;;;28.30;87.80;;;;;;4995563;28;20209;-80
2021/07/13 08:49:12;;;;;;;6.90;4.07;;;28.40;86.80;;;;;;4995162;28;20177;-80
2021/07/13 08:51:39;;;;;;;4.90;4.40;;;28.00;89.20;;;;;;4995471;28;20433;-80
2021/07/13 08:54:05;;;;;;;4.40;4.07;;;28.00;86.40;;;;;;4995661;28;20408;-80
2021/07/13 08:56:32;;;;;;;9.67;4.87;;;28.20;85.60;;;;;;4995385;28;20411;-80
2021/07/13 08:58:58;;;;;;;6.60;4.10;;;27.70;86.40;;;;;;4994745;28;20405;-80
2021/07/13 09:01:24;;;;;;;4.43;4.03;;;28.00;87.50;;;;;;4977518;28;20460;-80
2021/07/13 09:03:54;;;;;;;5.10;4.00;;;28.00;86.00;;;;;;4994964;28;20475;-80
2021/07/13 09:06:21;;;;;;;4.63;4.23;;;27.80;85.70;;;;;;4995102;28;20201;-80
2021/07/13 09:08:46;;;;;;;5.90;5.07;;;27.30;87.90;;;;;;4993994;28;20495;-80
2021/07/13 09:11:18;;;;;;;6.63;4.40;;;27.50;89.40;;;;;;4994735;28;20512;-80
2021/07/13 09:13:55;;;;;;;5.70;5.20;;;28.00;87.00;;;;;;4994890;28;20169;-80
2021/07/13 09:16:34;;;;;;;5.57;5.07;;;28.20;86.50;;;;;;4995103;28;20404;-80
2021/07/13 09:19:00;;;;;;;5.00;4.60;;;28.30;88.30;;;;;;4994421;28;20418;-80
2021/07/13 09:21:27;;;;;;;4.40;4.03;;;28.60;86.30;;;;;;4994645;28;20420;-80
2021/07/13 09:24:14;;;;;;;6.10;4.37;;;28.80;86.10;;;;;;4994991;28;20443;-80
2021/07/13 09:26:55;;;;;;;5.07;4.57;;;28.80;87.00;;;;;;4994941;28;20459;-80
2021/07/13 09:29:39;;;;;;;6.63;3.60;;;28.70;86.30;;;;;;4994864;28;20443;-80
2021/07/13 09:32:22;;;;;;;4.90;3.97;;;28.50;85.00;;;;;;4993746;28;20439;-80
2021/07/13 09:35:03;;;;;;;4.50;3.60;;;28.20;83.90;;;;;;4994800;28;20401;-79
2021/07/13 09:37:34;;;;;;;4.23;3.70;;;27.80;83.80;;;;;;4994083;28;20491;-80
2021/07/13 09:40:08;;;;;;;4.43;4.03;;;27.70;86.00;;;;;;4994388;28;20417;-80
2021/07/13 09:42:41;;;;;;;4.10;3.70;;;28.10;84.90;;;;;;4977147;28;20440;-80
2021/07/13 09:45:19;;;;;;;8.00;4.07;;;28.00;86.30;;;;;;4994409;28;20405;-80
2021/07/13 09:47:45;;;;;;;4.70;4.30;;;28.00;85.50;;;;;;4993389;28;21046;-80
2021/07/13 09:50:12;;;;;;;4.40;4.00;;;28.00;85.90;;;;;;4994836;28;20816;-80
2021/07/13 09:52:38;;;;;;;4.27;3.97;;;28.30;85.00;;;;;;4994477;28;20922;-80
2021/07/13 09:55:17;;;;;;;10.80;3.70;;;28.10;84.90;;;;;;4976882;28;20422;-79
2021/07/13 09:57:43;;;;;;;3.83;3.53;;;26.90;87.00;;;;;;4976159;28;20777;-80
2021/07/13 10:00:09;;;;;;;3.57;3.33;;;26.70;87.90;;;;;;4993594;28;20463;-80
2021/07/13 10:02:35;;;;;;;3.80;3.50;;;26.50;89.90;;;;;;4994038;28;20204;-80
2021/07/13 10:05:04;;;;;;;5.80;4.30;;;27.20;87.20;;;;;;4994002;28;20466;-80
2021/07/13 10:07:32;;;;;;;6.43;4.33;;;27.80;86.20;;;;;;4993334;28;20203;-80
2021/07/13 10:10:03;;;;;;;4.23;3.90;;;28.30;85.40;;;;;;4993646;28;20416;-80
2021/07/13 10:12:28;;;;;;;6.37;4.20;;;28.20;85.30;;;;;;4994058;28;20436;-80
2021/07/13 10:14:56;;;;;;;4.07;3.70;;;28.10;86.60;;;;;;5030175;22;20495;-78
2021/07/13 10:17:25;;;;;;;6.00;4.37;;;28.10;85.30;;;;;;5021467;28;20184;-79
2021/07/13 10:19:54;;;;;;;9.00;4.80;;;27.80;86.80;;;;;;5012891;28;20407;-79
2021/07/13 10:22:22;;;;;;;5.73;3.70;;;28.00;83.80;;;;;;5013030;28;20461;-79
2021/07/13 10:24:51;;;;;;;4.40;4.10;;;27.90;84.20;;;;;;5012852;28;20431;-79
2021/07/13 10:27:34;;;;;;;5.00;4.10;;;28.10;86.20;;;;;;4994861;28;20896;-79
2021/07/13 10:30:02;;;;;;;4.10;3.70;;;28.40;85.00;;;;;;5012887;28;20921;-79
2021/07/13 10:32:28;;;;;;;5.53;3.80;;;28.10;82.90;;;;;;5012890;28;20396;-79
2021/07/13 10:35:00;;;;;;;4.80;3.97;;;28.30;84.40;;;;;;5013207;28;20485;-79
2021/07/13 10:37:40;;;;;;;4.03;3.70;;;28.50;82.60;;;;;;5012699;28;20207;-79
2021/07/13 10:40:33;;;;;;;3.90;3.60;;;28.60;85.20;;;;;;5013332;28;20398;-78
2021/07/13 10:43:03;;;;;;;5.20;3.57;;;29.00;82.50;;;;;;5015681;28;20426;-79
2021/07/13 10:45:35;;;;;;;3.67;3.37;;;29.20;80.50;;;;;;5017748;28;21204;-79
2021/07/13 10:48:08;;;;;;;5.90;5.27;;;29.00;80.50;;;;;;5016994;28;20450;-79
2021/07/13 10:50:36;;;;;;;11.40;7.67;;;29.10;80.40;;;;;;5017526;28;20411;-79
2021/07/13 10:53:23;;;;;;;4.00;3.60;;;29.20;81.50;;;;;;5017765;28;20425;-79
2021/07/13 10:55:53;;;;;;;6.40;2.90;;;29.60;80.90;;;;;;5018581;28;20427;-79
2021/07/13 10:58:18;;;;;;;2.70;2.50;;;29.60;78.80;;;;;;5017431;28;20411;-79
2021/07/13 11:03:27;;;;;;;3.00;2.10;;;29.20;79.00;;;;;;5017443;28;20195;-79
2021/07/13 11:05:53;;;;;;;3.43;2.40;;;29.40;77.60;;;;;;5016929;28;20433;-79
2021/07/13 11:08:41;;;;;;;2.97;2.37;;;29.10;77.80;;;;;;5016037;28;20497;-78
2021/07/13 11:11:18;;;;;;;2.60;2.40;;;29.00;77.70;;;;;;5016704;28;20491;-78
2021/07/13 11:13:56;;;;;;;2.50;2.30;;;29.20;77.20;;;;;;5016383;28;20409;-79
2021/07/13 11:16:33;;;;;;;3.37;2.63;;;28.80;78.10;;;;;;5016567;28;20410;-78
2021/07/13 11:19:00;;;;;;;5.50;2.30;;;28.90;78.30;;;;;;5016543;28;20402;-79
2021/07/13 11:21:37;;;;;;;4.20;2.80;;;29.00;79.20;;;;;;5017243;28;20411;-78
2021/07/13 11:24:02;;;;;;;2.70;2.37;;;28.80;79.10;;;;;;5016247;28;20831;-78
2021/07/13 11:26:28;;;;;;;2.93;2.73;;;28.80;78.50;;;;;;5015016;28;20509;-79
2021/07/13 11:28:56;;;;;;;3.77;2.40;;;28.90;79.20;;;;;;5015535;28;20176;-79
2021/07/13 11:31:30;;;;;;;3.00;2.80;;;28.80;78.40;;;;;;5016424;28;20176;-79
2021/07/13 11:33:58;;;;;;;7.33;2.67;;;29.10;77.70;;;;;;5016776;28;20457;-79
2021/07/13 11:36:40;;;;;;;3.13;2.83;;;29.60;78.20;;;;;;5016982;28;20419;-79
2021/07/13 11:39:09;;;;;;;2.83;2.60;;;29.40;78.00;;;;;;5016314;28;20503;-79
2021/07/13 11:41:35;;;;;;;8.60;2.90;;;29.00;77.30;;;;;;5015944;28;20426;-79
2021/07/13 11:44:03;;;;;;;2.73;2.47;;;29.20;79.00;;;;;;5016685;28;20939;-79
2021/07/13 11:46:41;;;;;;;3.83;2.60;;;29.50;78.90;;;;;;5016836;28;20474;-79
2021/07/13 11:49:09;;;;;;;3.20;2.50;;;29.10;78.70;;;;;;5015757;28;20434;-79
2021/07/13 11:51:40;;;;;;;4.07;2.60;;;29.40;77.70;;;;;;5015862;28;20903;-79
2021/07/13 11:54:12;;;;;;;2.97;2.63;;;29.70;77.40;;;;;;5015177;28;20427;-79
2021/07/13 11:56:44;;;;;;;3.10;2.80;;;29.70;78.00;;;;;;5017011;28;20418;-79
2021/07/13 11:59:10;;;;;;;3.00;2.70;;;29.80;78.70;;;;;;5016265;28;20446;-79
2021/07/13 12:01:37;;;;;;;3.97;2.67;;;29.60;78.40;;;;;;5016938;28;20415;-79
2021/07/13 12:04:07;;;;;;;3.63;3.27;;;29.70;78.60;;;;;;5019846;28;20461;-79
2021/07/13 12:06:34;;;;;;;4.67;2.90;;;30.30;76.20;;;;;;5035385;28;20455;-79
2021/07/13 12:09:03;;;;;;;2.50;2.40;;;30.40;75.30;;;;;;5031397;28;20399;-79
2021/07/13 12:11:31;;;;;;;4.37;2.50;;;30.40;77.90;;;;;;5017544;28;20403;-79
2021/07/13 12:13:58;;;;;;;6.60;2.73;;;30.80;80.00;;;;;;5018072;28;20412;-79
2021/07/13 12:16:29;;;;;;;6.33;3.17;;;30.80;76.70;;;;;;5018915;28;20872;-79
2021/07/13 12:18:57;;;;;;;4.87;3.03;;;31.00;75.20;;;;;;5018091;28;20411;-79
2021/07/13 12:21:23;;;;;;;2.80;2.60;;;31.00;74.80;;;;;;5019164;28;20407;-79
2021/07/13 12:23:51;;;;;;;5.00;3.50;;;30.80;75.00;;;;;;5019212;28;20412;-79
2021/07/13 12:26:26;;;;;;;3.67;3.37;;;30.50;74.80;;;;;;5018623;28;20173;-79
2021/07/13 12:29:13;;;;;;;9.33;3.97;;;31.20;74.60;;;;;;5017511;28;20413;-79
2021/07/13 12:31:45;;;;;;;3.00;2.70;;;31.20;78.00;;;;;;5000344;28;20443;-79
2021/07/13 12:34:25;;;;;;;3.57;3.27;;;30.40;77.30;;;;;;5018602;28;20423;-79
2021/07/13 12:37:15;;;;;;;4.47;3.07;;;30.40;79.00;;;;;;5019154;28;20439;-79
2021/07/13 12:39:50;;;;;;;5.77;3.67;;;30.80;79.80;;;;;;5019158;28;20416;-79
2021/07/13 12:42:23;;;;;;;3.63;3.33;;;30.90;76.00;;;;;;5019043;28;20403;-79
2021/07/13 12:44:50;;;;;;;3.63;3.33;;;30.70;75.50;;;;;;5016896;28;20445;-79
2021/07/13 12:47:38;;;;;;;4.70;4.10;;;30.80;76.10;;;;;;5016813;28;20447;-79
2021/07/13 12:50:12;;;;;;;3.60;3.27;;;30.90;76.80;;;;;;5016647;28;20479;-79
2021/07/13 12:52:58;;;;;;;4.27;3.30;;;30.80;78.10;;;;;;5017421;28;20391;-79
2021/07/13 12:55:37;;;;;;;3.77;3.30;;;30.80;79.80;;;;;;5017699;28;20502;-79
2021/07/13 12:58:15;;;;;;;4.17;3.77;;;31.10;75.00;;;;;;5015439;28;20820;-79
2021/07/13 13:00:46;;;;;;;5.60;3.60;;;30.90;75.90;;;;;;5017062;28;20493;-79
2021/07/13 13:03:15;;;;;;;4.10;3.70;;;30.30;78.60;;;;;;5017393;28;20415;-79
2021/07/13 13:05:42;;;;;;;4.37;3.97;;;30.40;78.20;;;;;;4998557;28;20439;-79
2021/07/13 13:08:21;;;;;;;5.20;4.27;;;30.40;78.90;;;;;;5016151;28;20812;-79
2021/07/13 13:10:52;;;;;;;6.20;3.80;;;30.50;77.40;;;;;;5016139;28;20482;-79
2021/07/13 13:13:44;;;;;;;3.87;3.43;;;30.40;78.70;;;;;;5015456;28;20412;-79
2021/07/13 13:16:25;;;;;;;6.70;4.10;;;30.30;80.00;;;;;;5015986;28;21146;-79
2021/07/13 13:18:52;;;;;;;6.93;4.40;;;30.10;79.40;;;;;;5015796;28;20470;-79
2021/07/13 13:21:17;;;;;;;4.53;4.13;;;30.00;78.60;;;;;;5016147;28;20412;-79
2021/07/13 13:23:43;;;;;;;5.70;4.90;;;30.00;79.50;;;;;;5015176;28;20527;-79
2021/07/13 13:26:08;;;;;;;9.03;4.70;;;29.90;80.50;;;;;;5015791;28;20180;-79
2021/07/13 13:28:34;;;;;;;4.97;4.47;;;30.40;82.00;;;;;;5016256;28;20173;-79
2021/07/13 13:31:00;;;;;;;20.03;5.17;;;30.40;81.90;;;;;;5017449;28;20187;-79
2021/07/13 13:33:25;;;;;;;5.07;4.40;;;30.60;79.40;;;;;;5016434;28;20181;-79
2021/07/13 13:36:08;;;;;;;5.07;4.40;;;30.50;79.60;;;;;;5015854;28;20270;-79
2021/07/13 13:38:40;;;;;;;6.80;5.00;;;30.60;81.20;;;;;;5015365;28;20524;-79
2021/07/13 13:41:06;;;;;;;5.67;5.10;;;30.50;80.90;;;;;;4997925;28;20411;-79
2021/07/13 13:43:32;;;;;;;6.93;4.57;;;30.10;81.10;;;;;;4998056;28;20511;-79
2021/07/13 13:45:58;;;;;;;7.07;4.20;;;30.30;80.90;;;;;;5015301;28;20189;-79
2021/07/13 13:48:24;;;;;;;6.13;4.97;;;30.30;81.70;;;;;;4997024;28;20506;-79
2021/07/13 13:50:49;;;;;;;6.00;4.83;;;30.10;82.70;;;;;;5015263;28;20311;-79
2021/07/13 13:53:14;;;;;;;5.80;5.30;;;29.60;84.90;;;;;;5014950;28;20180;-78
2021/07/13 13:55:40;;;;;;;7.53;5.60;;;29.40;84.90;;;;;;5014988;28;20641;-78
2021/07/13 13:58:06;;;;;;;5.50;5.00;;;29.40;85.40;;;;;;5014580;28;20172;-78
2021/07/13 14:00:31;;;;;;;4.67;4.27;;;29.40;84.60;;;;;;5015100;28;20177;-79
2021/07/13 14:02:58;;;;;;;6.90;4.80;;;29.30;84.40;;;;;;5015089;28;20244;-79
2021/07/13 14:05:23;;;;;;;5.53;5.03;;;29.20;84.60;;;;;;5014335;28;20231;-79
2021/07/13 14:07:49;;;;;;;6.13;5.53;;;29.20;84.50;;;;;;5013283;28;20498;-79
2021/07/13 14:10:16;;;;;;;6.23;5.73;;;29.30;85.60;;;;;;5013967;28;20176;-79
2021/07/13 14:12:42;;;;;;;6.10;5.60;;;29.40;84.50;;;;;;5014300;28;20514;-79
2021/07/13 14:15:10;;;;;;;7.77;5.67;;;29.10;85.70;;;;;;5014166;28;20535;-79
2021/07/13 14:17:37;;;;;;;6.17;5.57;;;29.30;86.40;;;;;;5013732;28;20173;-79
2021/07/13 14:20:04;;;;;;;5.93;5.40;;;29.40;85.90;;;;;;5014835;28;20423;-79
2021/07/13 14:22:29;;;;;;;8.03;5.93;;;29.50;86.60;;;;;;5016255;28;20441;-79
2021/07/13 14:24:55;;;;;;;6.10;5.43;;;29.60;86.50;;;;;;5015585;28;20506;-79
2021/07/13 14:27:21;;;;;;;7.33;5.30;;;30.20;84.00;;;;;;5016159;28;20544;-79
2021/07/13 14:29:48;;;;;;;5.70;5.20;;;30.40;82.90;;;;;;5015287;28;20200;-79
2021/07/13 14:32:13;;;;;;;7.80;6.30;;;30.10;83.70;;;;;;5015600;28;20415;-79
2021/07/13 14:34:39;;;;;;;9.57;5.90;;;30.50;84.60;;;;;;5014786;28;20192;-79
2021/07/13 14:37:05;;;;;;;7.53;6.07;;;30.40;83.30;;;;;;5017109;28;20192;-79
2021/07/13 14:39:30;;;;;;;6.20;5.70;;;30.60;84.00;;;;;;5035352;28;20220;-79
2021/07/13 14:41:56;;;;;;;6.20;5.70;;;30.50;82.40;;;;;;5017425;28;20424;-79
2021/07/13 14:44:21;;;;;;;8.30;5.33;;;30.10;83.50;;;;;;5036810;28;20191;-79
2021/07/13 14:46:47;;;;;;;6.90;6.00;;;30.20;82.00;;;;;;5035366;28;20228;-79
2021/07/13 14:49:13;;;;;;;7.47;5.60;;;30.10;83.30;;;;;;5034306;28;20175;-79
2021/07/13 14:51:38;;;;;;;7.40;4.70;;;30.00;83.70;;;;;;5034642;28;20175;-79
2021/07/13 14:54:04;;;;;;;8.47;5.40;;;30.40;82.20;;;;;;5035239;28;20694;-79
2021/07/13 14:56:29;;;;;;;6.60;5.70;;;30.40;82.80;;;;;;5018514;28;20278;-79
2021/07/13 14:58:55;;;;;;;7.20;6.20;;;30.40;81.90;;;;;;5034180;28;20188;-79
2021/07/13 15:01:20;;;;;;;9.80;6.43;;;30.10;82.50;;;;;;5034647;28;20183;-78
2021/07/13 15:03:47;;;;;;;6.80;6.10;;;29.40;84.70;;;;;;5029460;28;20553;-76
2021/07/13 15:06:13;;;;;;;6.50;5.90;;;28.90;86.80;;;;;;5032171;28;20184;-76
2021/07/13 15:08:39;;;;;;;6.57;5.93;;;28.60;87.30;;;;;;5025753;28;20441;-76
2021/07/13 15:11:04;;;;;;;8.13;6.30;;;28.30;87.80;;;;;;5012314;28;20896;-77
2021/07/13 15:13:30;;;;;;;6.43;5.67;;;28.10;89.70;;;;;;5025587;28;20415;-77
2021/07/13 15:15:55;;;;;;;7.53;6.60;;;28.30;89.60;;;;;;5031375;28;20258;-76
2021/07/13 15:18:21;;;;;;;8.37;6.07;;;28.40;89.80;;;;;;5029914;28;20184;-76
2021/07/13 15:20:47;;;;;;;7.30;6.47;;;28.50;89.40;;;;;;5022802;28;20267;-77
2021/07/13 15:23:12;;;;;;;7.27;6.20;;;28.50;90.50;;;;;;5024412;28;20233;-77
2021/07/13 15:25:38;;;;;;;10.13;6.20;;;28.70;88.50;;;;;;5022965;28;20208;-76
2021/07/13 15:28:04;;;;;;;13.83;6.83;;;28.50;88.80;;;;;;5021111;28;20199;-75
2021/07/13 15:30:31;;;;;;;7.80;6.03;;;28.60;89.20;;;;;;5013036;28;20175;-77
2021/07/13 15:32:56;;;;;;;12.60;7.53;;;28.70;88.30;;;;;;5015046;28;20817;-77
2021/07/13 15:35:22;;;;;;;10.73;9.60;;;28.90;88.20;;;;;;5015345;28;20447;-76
2021/07/13 15:37:48;;;;;;;9.53;7.80;;;29.00;88.80;;;;;;5014549;28;20255;-77
2021/07/13 15:40:15;;;;;;;8.60;6.93;;;29.40;87.30;;;;;;5014966;28;20550;-77
2021/07/13 15:42:42;;;;;;;9.10;6.60;;;30.10;86.60;;;;;;5015224;28;20582;-77
2021/07/13 15:45:12;;;;;;;9.67;6.60;;;30.30;85.50;;;;;;5015001;28;20780;-77
2021/07/13 15:47:38;;;;;;;7.03;6.33;;;30.20;86.90;;;;;;5014791;28;21180;-76
2021/07/13 15:50:04;;;;;;;7.27;6.40;;;30.20;86.90;;;;;;5026685;28;20423;-77
2021/07/13 15:52:30;;;;;;;7.27;6.57;;;30.20;86.50;;;;;;5022344;28;20414;-77
2021/07/13 15:54:55;;;;;;;6.73;6.13;;;29.90;85.90;;;;;;5014816;28;20443;-77
2021/07/13 15:57:20;;;;;;;7.73;6.60;;;29.60;87.40;;;;;;5014238;28;20216;-76
2021/07/13 15:59:46;;;;;;;9.00;5.93;;;29.50;86.90;;;;;;5026899;28;20184;-77
2021/07/13 16:02:12;;;;;;;6.97;6.37;;;29.30;86.90;;;;;;5034298;28;20248;-76
2021/07/13 16:04:37;;;;;;;7.23;6.53;;;28.80;89.80;;;;;;5034490;28;20204;-76
2021/07/13 16:07:03;;;;;;;13.63;8.20;;;28.30;91.20;;;;;;5033455;28;20318;-76
2021/07/13 16:09:28;;;;;;;8.77;6.93;;;28.30;91.40;;;;;;5025720;28;20172;-76
2021/07/13 16:11:54;;;;;;;7.37;6.60;;;28.30;91.30;;;;;;5001695;28;20183;-76
2021/07/13 16:14:20;;;;;;;8.23;7.30;;;28.10;92.60;;;;;;5024862;28;20200;-77
2021/07/13 16:16:46;;;;;;;8.83;7.43;;;27.70;94.00;;;;;;5092887;23;20227;-84
2021/07/13 16:19:11;;;;;;;13.40;7.50;;;27.50;94.40;;;;;;5034681;28;20174;-84
2021/07/13 16:21:38;;;;;;;9.57;7.73;;;27.40;95.10;;;;;;5054006;28;20177;-83
2021/07/13 16:24:04;;;;;;;8.90;8.00;;;27.20;95.10;;;;;;5054141;28;20255;-84
2021/07/13 16:26:30;;;;;;;8.23;7.50;;;27.00;95.70;;;;;;5054010;28;20898;-84
2021/07/13 16:28:56;;;;;;;12.93;7.40;;;26.90;96.30;;;;;;5035834;28;20213;-84
2021/07/13 16:31:21;;;;;;;8.03;7.33;;;26.80;96.30;;;;;;5058688;28;20750;-81
2021/07/13 16:33:48;;;;;;;9.43;7.27;;;26.80;96.30;;;;;;5030038;28;20184;-85
2021/07/13 16:36:15;;;;;;;14.87;7.90;;;26.80;96.30;;;;;;5010481;28;20200;-84
2021/07/13 16:38:42;;;;;;;8.77;7.50;;;26.70;96.30;;;;;;5013386;28;20814;-85
2021/07/13 16:41:08;;;;;;;8.23;7.43;;;26.70;96.30;;;;;;5014337;28;20419;-83
2021/07/13 16:43:33;;;;;;;12.30;7.53;;;;;;;;;;5002180;28;20469;-85
2021/07/13 16:46:00;;;;;;;8.47;7.63;;;;;;;;;;5015515;28;20199;-84
2021/07/13 16:48:26;;;;;;;14.97;9.17;;;26.60;96.30;;;;;;5021730;28;20203;-83
2021/07/13 16:50:52;;;;;;;15.13;12.67;;;;;;;;;;5033650;28;20505;-82
2021/07/13 16:53:18;;;;;;;16.97;15.27;;;;;;;;;;5029197;28;20453;-83
2021/07/13 16:55:44;;;;;;;21.33;14.30;;;;;;;;;;5010034;28;20204;-82